Time;durP1;ratioP1;P1;durP2;ratioP2;P2;SDS_P1;SDS_P2;PMS_P1;PMS_P2;Temp;Humidity;BMP_temperature;BMP_pressure;BME280_temperature;BME280_humidity;BME280_pressure;Samples;Min_cycle;Max_cycle;Signal;HPM_P1;HPM_P2
2022/07/11 00:00:20;;;;;;;;;;;;;;;13.66;67.83;97553.19;30001;983;1875;-56
2022/07/11 00:00:51;;;;;;;;;;;;;;;13.67;68.49;97559.44;30001;983;1875;-55
2022/07/11 00:01:22;;;;;;;;;;;;;;;13.67;68.21;97560.25;30001;982;1875;-56
2022/07/11 00:01:53;;;;;;;;;;;;;;;13.67;68.65;97560.25;30001;982;1875;-56
2022/07/11 00:02:24;;;;;;;;;;;;;;;13.67;68.65;97563.00;30001;982;1875;-56
2022/07/11 00:02:55;;;;;;;;;;;;;;;13.66;69.06;97561.37;30001;982;1876;-56
2022/07/11 00:03:28;;;;;;;;;;;;;;;13.65;69.03;97558.94;30001;982;1875;-56
2022/07/11 00:03:59;;;;;;;;;;;;;;;13.64;69.33;97560.84;30001;982;1876;-55
2022/07/11 00:04:30;;;;;;;;;;;;;;;13.64;69.19;97560.03;30001;982;1752;-55
2022/07/11 00:05:02;;;;;;;;;;;;;;;13.65;69.17;97562.47;30001;983;1866;-55
2022/07/11 00:05:32;;;;;;;;;;;;;;;13.65;68.85;97558.94;30001;983;1875;-55
2022/07/11 00:06:04;;;;;;;;;;;;;;;13.65;69.56;97558.94;30001;971;1898;-54
2022/07/11 00:06:35;;;;;;;;;;;;;;;13.65;69.54;97561.66;30001;983;1875;-54
2022/07/11 00:07:06;;;;;;;;;;;;;;;13.65;69.07;97562.47;30001;983;1875;-55
2022/07/11 00:07:37;;;;;;;;;;;;;;;13.66;68.81;97557.84;30001;983;1875;-55
2022/07/11 00:08:08;;;;;;;;;;;;;;;13.67;69.16;97564.91;30001;983;1875;-55
2022/07/11 00:08:39;;;;;;;;;;;;;;;13.67;69.36;97559.44;30001;983;1875;-57
2022/07/11 00:09:10;;;;;;;;;;;;;;;13.68;69.86;97556.44;30001;982;1876;-55
2022/07/11 00:09:41;;;;;;;;;;;;;;;13.67;68.97;97560.25;30001;982;1754;-55
2022/07/11 00:10:14;;;;;;;;;;;;;;;13.69;68.98;97562.69;30001;982;1867;-54
2022/07/11 00:10:48;;;;;;;;;;;;;;;13.70;69.25;97562.41;30001;982;1875;-54
2022/07/11 00:11:21;;;;;;;;;;;;;;;13.70;69.50;97558.88;30001;983;1874;-54
2022/07/11 00:11:52;;;;;;;;;;;;;;;13.70;69.10;97558.88;30001;983;1875;-55
2022/07/11 00:12:26;;;;;;;;;;;;;;;13.70;69.59;97561.59;30001;983;1875;-55
2022/07/11 00:12:57;;;;;;;;;;;;;;;13.70;69.19;97558.88;30001;983;1875;-54
2022/07/11 00:13:28;;;;;;;;;;;;;;;13.69;69.64;97562.69;30001;983;1875;-57
2022/07/11 00:13:59;;;;;;;;;;;;;;;13.70;69.30;97558.88;30001;983;1875;-56
2022/07/11 00:14:30;;;;;;;;;;;;;;;13.69;69.11;97568.16;30001;983;1875;-57
2022/07/11 00:15:04;;;;;;;;;;;;;;;13.70;68.67;97558.88;30001;983;1787;-56
2022/07/11 00:15:35;;;;;;;;;;;;;;;13.72;68.39;97553.91;30001;983;1866;-56
2022/07/11 00:16:07;;;;;;;;;;;;;;;13.73;68.47;97548.16;30001;986;1871;-56
2022/07/11 00:16:40;;;;;;;;;;;;;;;13.75;68.92;97550.59;30001;982;1875;-56
2022/07/11 00:17:10;;;;;;;;;;;;;;;13.75;69.16;97545.97;30001;982;1862;-55
2022/07/11 00:17:41;;;;;;;;;;;;;;;13.75;68.46;97545.97;30001;982;1867;-56
2022/07/11 00:18:12;;;;;;;;;;;;;;;13.77;68.45;97548.38;30001;982;1875;-56
2022/07/11 00:18:43;;;;;;;;;;;;;;;13.78;68.42;97552.75;30001;982;1875;-56
2022/07/11 00:19:14;;;;;;;;;;;;;;;13.80;68.24;97541.53;30001;962;1896;-55
2022/07/11 00:19:45;;;;;;;;;;;;;;;13.81;68.44;97554.06;30001;983;1875;-55
2022/07/11 00:20:17;;;;;;;;;;;;;;;13.81;68.42;97543.16;30001;983;1875;-56
2022/07/11 00:20:47;;;;;;;;;;;;;;;13.81;68.99;97543.16;30001;983;1875;-56
2022/07/11 00:21:19;;;;;;;;;;;;;;;13.79;68.95;97546.19;30001;983;1875;-55
2022/07/11 00:21:50;;;;;;;;;;;;;;;13.79;69.38;97550.81;30001;983;1862;-56
2022/07/11 00:22:21;;;;;;;;;;;;;;;13.79;68.76;97551.62;30001;965;1884;-55
2022/07/11 00:22:52;;;;;;;;;;;;;;;13.80;69.08;97542.34;30001;983;1875;-55
2022/07/11 00:23:23;;;;;;;;;;;;;;;13.80;69.21;97547.81;30001;983;1875;-55
2022/07/11 00:23:55;;;;;;;;;;;;;;;13.81;68.90;97541.22;30001;982;1875;-55
2022/07/11 00:24:26;;;;;;;;;;;;;;;13.82;68.47;97544.78;30001;982;1875;-56
2022/07/11 00:24:58;;;;;;;;;;;;;;;13.82;68.50;97545.59;30001;982;1875;-57
2022/07/11 00:25:28;;;;;;;;;;;;;;;13.82;68.58;97540.13;30001;982;1875;-55
2022/07/11 00:25:59;;;;;;;;;;;;;;;13.83;68.56;97541.75;30001;982;1862;-56
2022/07/11 00:26:30;;;;;;;;;;;;;;;13.84;68.28;97540.66;30001;983;1866;-56
2022/07/11 00:27:02;;;;;;;;;;;;;;;13.84;68.58;97537.91;30001;983;1861;-56
2022/07/11 00:27:33;;;;;;;;;;;;;;;13.85;68.40;97536.81;30001;983;1865;-57
2022/07/11 00:28:05;;;;;;;;;;;;;;;13.85;68.23;97542.25;30001;983;1861;-55
2022/07/11 00:28:35;;;;;;;;;;;;;;;13.86;68.98;97541.13;30001;985;1862;-55
2022/07/11 00:29:06;;;;;;;;;;;;;;;13.85;68.92;97536.81;30001;987;1871;-56
2022/07/11 00:29:37;;;;;;;;;;;;;;;13.85;68.80;97544.19;30001;983;1875;-56
2022/07/11 00:30:09;;;;;;;;;;;;;;;13.83;68.65;97536.28;30001;983;1875;-56
2022/07/11 00:30:40;;;;;;;;;;;;;;;13.84;69.05;97546.09;30001;985;1871;-55
2022/07/11 00:31:10;;;;;;;;;;;;;;;13.84;69.17;97537.91;30001;983;1776;-55
2022/07/11 00:31:42;;;;;;;;;;;;;;;13.82;69.28;97542.84;30001;982;1875;-54
2022/07/11 00:32:13;;;;;;;;;;;;;;;13.82;68.90;97548.31;30001;982;1862;-55
2022/07/11 00:32:43;;;;;;;;;;;;;;;13.82;68.99;97540.13;30001;982;1867;-57
2022/07/11 00:33:14;;;;;;;;;;;;;;;13.80;69.98;97536.88;30001;982;1875;-56
2022/07/11 00:33:46;;;;;;;;;;;;;;;13.81;69.23;97538.50;30001;982;1875;-56
2022/07/11 00:34:17;;;;;;;;;;;;;;;13.81;68.68;97537.69;30001;983;1875;-54
2022/07/11 00:34:48;;;;;;;;;;;;;;;13.82;68.74;97540.13;30001;983;1875;-55
2022/07/11 00:35:19;;;;;;;;;;;;;;;13.84;68.63;97543.38;30001;983;1875;-56
2022/07/11 00:35:50;;;;;;;;;;;;;;;13.86;68.75;97540.34;30001;983;1875;-56
2022/07/11 00:36:21;;;;;;;;;;;;;;;13.87;68.77;97541.94;30001;983;1875;-57
2022/07/11 00:36:52;;;;;;;;;;;;;;;13.86;68.50;97541.13;30001;983;1875;-55
2022/07/11 00:37:23;;;;;;;;;;;;;;;13.87;68.77;97533.75;30001;983;1862;-55
2022/07/11 00:37:54;;;;;;;;;;;;;;;13.84;68.92;97537.91;30001;983;1866;-55
2022/07/11 00:38:24;;;;;;;;;;;;;;;13.85;68.79;97536.81;30001;983;1875;-55
2022/07/11 00:38:55;;;;;;;;;;;;;;;13.84;69.13;97537.91;30001;983;1875;-55
2022/07/11 00:39:27;;;;;;;;;;;;;;;13.84;69.00;97540.66;30001;982;1875;-55
2022/07/11 00:39:59;;;;;;;;;;;;;;;13.82;69.51;97534.69;30001;982;1875;-55
2022/07/11 00:40:30;;;;;;;;;;;;;;;13.82;69.96;97534.69;30001;982;1875;-55
2022/07/11 00:41:01;;;;;;;;;;;;;;;13.79;69.99;97535.28;30001;982;1875;-55
2022/07/11 00:41:32;;;;;;;;;;;;;;;13.78;69.83;97539.09;30001;983;1776;-55
2022/07/11 00:42:04;;;;;;;;;;;;;;;13.77;69.75;97536.66;30001;983;1875;-55
2022/07/11 00:42:35;;;;;;;;;;;;;;;13.73;69.35;97531.81;30001;983;1861;-55
2022/07/11 00:43:06;;;;;;;;;;;;;;;13.74;68.98;97538.87;30001;983;1866;-56
2022/07/11 00:43:39;;;;;;;;;;;;;;;13.74;68.98;97533.44;30001;983;1875;-55
2022/07/11 00:44:09;;;;;;;;;;;;;;;13.74;69.48;97538.87;30001;983;1875;-55
2022/07/11 00:44:40;;;;;;;;;;;;;;;13.74;69.46;97535.34;30001;983;1875;-55
2022/07/11 00:45:11;;;;;;;;;;;;;;;13.74;69.39;97532.63;30001;983;1875;-56
2022/07/11 00:45:43;;;;;;;;;;;;;;;13.73;69.40;97531.00;30001;983;1875;-55
2022/07/11 00:46:15;;;;;;;;;;;;;;;13.72;69.27;97534.84;30001;982;1862;-56
2022/07/11 00:46:46;;;;;;;;;;;;;;;13.70;70.20;97537.03;30001;982;1866;-55
2022/07/11 00:47:17;;;;;;;;;;;;;;;13.66;70.08;97536.00;30001;982;1875;-56
2022/07/11 00:47:48;;;;;;;;;;;;;;;13.64;69.78;97532.78;30001;982;1875;-55
2022/07/11 00:48:19;;;;;;;;;;;;;;;13.63;70.27;97542.06;30001;982;1876;-56
2022/07/11 00:48:51;;;;;;;;;;;;;;;13.62;69.94;97530.34;30001;982;1876;-55
2022/07/11 00:49:22;;;;;;;;;;;;;;;13.61;70.19;97533.38;30001;983;1875;-55
2022/07/11 00:49:53;;;;;;;;;;;;;;;13.60;70.15;97538.00;30001;983;1875;-56
2022/07/11 00:50:24;;;;;;;;;;;;;;;13.59;70.20;97541.84;30001;983;1875;-54
2022/07/11 00:50:56;;;;;;;;;;;;;;;13.59;70.31;97535.56;30001;983;1875;-55
2022/07/11 00:51:28;;;;;;;;;;;;;;;13.57;70.66;97537.78;30001;983;1862;-55
2022/07/11 00:51:59;;;;;;;;;;;;;;;13.56;70.46;97541.63;30001;983;1866;-55
2022/07/11 00:52:32;;;;;;;;;;;;;;;13.55;70.54;97529.09;30001;983;1862;-55
2022/07/11 00:53:03;;;;;;;;;;;;;;;13.55;70.76;97534.53;30001;983;1866;-55
2022/07/11 00:53:34;;;;;;;;;;;;;;;13.53;70.91;97528.56;30001;982;1862;-55
2022/07/11 00:54:07;;;;;;;;;;;;;;;13.52;70.68;97527.75;30001;982;1866;-60
2022/07/11 00:54:38;;;;;;;;;;;;;;;13.52;70.38;97530.50;30001;982;1862;-56
2022/07/11 00:55:10;;;;;;;;;;;;;;;13.54;70.63;97532.91;30001;982;1867;-56
2022/07/11 00:55:41;;;;;;;;;;;;;;;13.52;70.06;97529.69;30001;982;1875;-56
2022/07/11 00:56:13;;;;;;;;;;;;;;;13.54;70.09;97530.19;30001;982;1875;-55
2022/07/11 00:56:44;;;;;;;;;;;;;;;13.53;70.32;97532.09;30001;983;1875;-55
2022/07/11 00:57:15;;;;;;;;;;;;;;;13.52;70.74;97524.22;30001;983;1875;-54
2022/07/11 00:57:46;;;;;;;;;;;;;;;13.47;71.13;97527.06;30001;983;1875;-56
2022/07/11 00:58:17;;;;;;;;;;;;;;;13.44;71.47;97523.00;30001;983;1875;-56
2022/07/11 00:58:49;;;;;;;;;;;;;;;13.41;71.78;97521.69;30001;983;1875;-56
2022/07/11 00:59:21;;;;;;;;;;;;;;;13.40;71.35;97522.78;30001;983;1875;-55
2022/07/11 00:59:55;;;;;;;;;;;;;;;13.40;71.75;97528.22;30001;983;1862;-56
2022/07/11 01:00:25;;;;;;;;;;;;;;;13.40;71.24;97527.41;30001;983;1853;-55
2022/07/11 01:00:57;;;;;;;;;;;;;;;13.39;71.42;97526.63;30001;982;1875;-55
2022/07/11 01:01:28;;;;;;;;;;;;;;;13.40;71.23;97525.50;30001;982;1875;-56
2022/07/11 01:01:58;;;;;;;;;;;;;;;13.40;71.63;97522.78;30001;982;1876;-56
2022/07/11 01:02:34;;;;;;;;;;;;;;;13.40;71.57;97533.69;30001;982;1862;-56
2022/07/11 01:03:05;;;;;;;;;;;;;;;13.38;72.29;97519.53;30001;982;1867;-55
2022/07/11 01:03:38;;;;;;;;;;;;;;;13.37;71.67;97522.56;30001;982;1875;-56
2022/07/11 01:04:09;;;;;;;;;;;;;;;13.36;71.38;97524.47;30001;982;1875;-56
2022/07/11 01:04:43;;;;;;;;;;;;;;;13.37;71.35;97523.37;30001;983;1875;-55
2022/07/11 01:05:13;;;;;;;;;;;;;;;13.38;71.81;97516.81;30001;983;1875;-56
2022/07/11 01:05:44;;;;;;;;;;;;;;;13.37;71.69;97517.91;30001;983;1862;-56
2022/07/11 01:06:17;;;;;;;;;;;;;;;13.38;71.29;97522.25;30001;983;1866;-56
2022/07/11 01:06:47;;;;;;;;;;;;;;;13.38;71.57;97521.44;30001;983;1875;-55
2022/07/11 01:07:21;;;;;;;;;;;;;;;13.36;72.56;97519.03;30001;983;1862;-55
2022/07/11 01:07:51;;;;;;;;;;;;;;;13.35;72.67;97524.75;30001;983;1866;-56
2022/07/11 01:08:23;;;;;;;;;;;;;;;13.33;72.36;97522.34;30001;982;1875;-55
2022/07/11 01:08:54;;;;;;;;;;;;;;;13.33;72.07;97525.06;30001;982;1875;-59
2022/07/11 01:09:25;;;;;;;;;;;;;;;13.32;72.52;97520.72;30001;982;1862;-55
2022/07/11 01:09:56;;;;;;;;;;;;;;;13.31;72.28;97519.09;30001;982;1867;-55
2022/07/11 01:10:27;;;;;;;;;;;;;;;13.30;71.99;97522.13;30001;982;1875;-56
2022/07/11 01:11:01;;;;;;;;;;;;;;;13.31;72.03;97521.00;30001;982;1876;-55
2022/07/11 01:11:32;;;;;;;;;;;;;;;13.30;71.66;97517.47;30001;982;1876;-56
2022/07/11 01:12:03;;;;;;;;;;;;;;;13.32;72.31;97525.34;30001;983;1875;-56
2022/07/11 01:12:34;;;;;;;;;;;;;;;13.31;72.17;97521.81;30001;963;1875;-55
2022/07/11 01:13:07;;;;;;;;;;;;;;;13.31;72.74;97513.66;30001;983;1875;-55
2022/07/11 01:13:40;;;;;;;;;;;;;;;13.26;72.90;97523.81;30001;983;1875;-55
2022/07/11 01:14:11;;;;;;;;;;;;;;;13.24;73.09;97515.91;30001;983;1875;-56
2022/07/11 01:15:00;;;;;;;;;;;;;;;13.24;73.09;97515.91;30001;983;1862;-56
2022/07/11 01:15:33;;;;;;;;;;;;;;;13.24;73.15;97517.84;30001;983;1866;-56
2022/07/11 01:16:20;;;;;;;;;;;;;;;13.23;72.78;97517.03;30001;982;1875;-55
2022/07/11 01:16:51;;;;;;;;;;;;;;;13.25;72.45;97519.47;30001;982;1875;-55
2022/07/11 01:17:22;;;;;;;;;;;;;;;13.27;72.77;97517.25;30001;982;1876;-55
2022/07/11 01:17:53;;;;;;;;;;;;;;;13.27;72.53;97517.25;30001;982;1875;-56
2022/07/11 01:18:24;;;;;;;;;;;;;;;13.28;72.99;97513.41;30001;982;1862;-57
2022/07/11 01:18:55;;;;;;;;;;;;;;;13.28;73.49;97513.41;30001;983;1866;-57
2022/07/11 01:19:26;;;;;;;;;;;;;;;13.26;73.46;97515.63;30001;961;1795;-56
2022/07/11 01:19:57;;;;;;;;;;;;;;;13.24;73.29;97513.19;30001;983;1875;-55
2022/07/11 01:20:29;;;;;;;;;;;;;;;13.24;73.44;97512.38;30001;983;1875;-59
2022/07/11 01:21:01;;;;;;;;;;;;;;;13.26;72.79;97521.88;30001;983;1875;-56
2022/07/11 01:21:35;;;;;;;;;;;;;;;13.25;73.34;97514.81;30001;983;1875;-54
2022/07/11 01:22:07;;;;;;;;;;;;;;;13.23;72.94;97514.31;30001;983;1875;-56
2022/07/11 01:22:49;;;;;;;;;;;;;;;13.23;73.05;97514.31;30001;983;1876;-56
2022/07/11 01:23:19;;;;;;;;;;;;;;;13.24;72.48;97518.66;30001;983;1875;-55
2022/07/11 01:23:55;;;;;;;;;;;;;;;13.26;72.49;97515.63;30001;982;1862;-55
2022/07/11 01:24:26;;;;;;;;;;;;;;;13.28;71.91;97518.88;30001;982;1853;-56
2022/07/11 01:24:57;;;;;;;;;;;;;;;13.29;71.78;97518.56;30001;982;1875;-55
2022/07/11 01:25:32;;;;;;;;;;;;;;;13.31;71.96;97513.66;30001;982;1875;-55
2022/07/11 01:26:04;;;;;;;;;;;;;;;13.34;71.83;97515.78;30001;983;1875;-54
2022/07/11 01:26:36;;;;;;;;;;;;;;;13.34;71.84;97518.50;30001;983;1875;-55
2022/07/11 01:27:07;;;;;;;;;;;;;;;13.36;71.93;97523.66;30001;983;1875;-55
2022/07/11 01:27:38;;;;;;;;;;;;;;;13.37;71.74;97517.91;30001;983;1875;-55
2022/07/11 01:28:10;;;;;;;;;;;;;;;13.39;71.74;97515.72;30001;983;1875;-55
2022/07/11 01:28:41;;;;;;;;;;;;;;;13.40;71.59;97517.31;30001;983;1875;-55
2022/07/11 01:29:13;;;;;;;;;;;;;;;13.41;71.57;97518.94;30001;983;1875;-59
2022/07/11 01:29:44;;;;;;;;;;;;;;;13.44;71.71;97516.75;30001;983;1862;-56
2022/07/11 01:30:14;;;;;;;;;;;;;;;13.47;71.45;97521.59;30001;983;1866;-55
2022/07/11 01:30:54;;;;;;;;;;;;;;;13.48;71.49;97523.22;30001;983;1875;-55
2022/07/11 01:31:26;;;;;;;;;;;;;;;13.50;71.28;97516.37;30001;982;1876;-56
2022/07/11 01:31:57;;;;;;;;;;;;;;;13.52;71.10;97518.78;30001;982;1862;-56
2022/07/11 01:32:28;;;;;;;;;;;;;;;13.53;71.20;97521.19;30001;982;1867;-54
2022/07/11 01:32:59;;;;;;;;;;;;;;;13.55;71.23;97519.00;30001;982;1875;-56
2022/07/11 01:33:33;;;;;;;;;;;;;;;13.55;71.24;97518.19;30001;982;1875;-56
2022/07/11 01:34:05;;;;;;;;;;;;;;;13.55;70.79;97524.44;30001;983;1875;-56
2022/07/11 01:34:36;;;;;;;;;;;;;;;13.57;71.40;97518.69;30001;983;1875;-56
2022/07/11 01:35:07;;;;;;;;;;;;;;;13.58;71.07;97517.59;30001;983;1875;-56
2022/07/11 01:35:38;;;;;;;;;;;;;;;13.57;72.20;97516.78;30001;983;1875;-56
2022/07/11 01:36:12;;;;;;;;;;;;;;;13.57;72.03;97515.97;30001;983;1875;-56
2022/07/11 01:36:43;;;;;;;;;;;;;;;13.58;71.23;97512.12;30001;983;1875;-57
2022/07/11 01:37:14;;;;;;;;;;;;;;;13.59;71.47;97508.31;30001;983;1862;-56
2022/07/11 01:37:45;;;;;;;;;;;;;;;13.59;71.97;97516.47;30001;983;1866;-60
2022/07/11 01:38:17;;;;;;;;;;;;;;;13.57;72.05;97514.06;30001;983;1875;-55
2022/07/11 01:38:47;;;;;;;;;;;;;;;13.56;71.72;97508.91;30001;982;1875;-56
2022/07/11 01:39:18;;;;;;;;;;;;;;;13.58;71.72;97514.88;30001;982;1862;-57
2022/07/11 01:39:52;;;;;;;;;;;;;;;13.57;71.72;97505.06;30001;982;1867;-56
2022/07/11 01:40:23;;;;;;;;;;;;;;;13.58;71.53;97512.12;30001;982;1875;-56
2022/07/11 01:40:55;;;;;;;;;;;;;;;13.58;72.17;97507.50;30001;982;1875;-56
2022/07/11 01:41:27;;;;;;;;;;;;;;;13.58;72.67;97512.12;30001;983;1875;-55
2022/07/11 01:41:58;;;;;;;;;;;;;;;13.57;72.52;97507.78;30001;983;1875;-56
2022/07/11 01:42:29;;;;;;;;;;;;;;;13.57;72.31;97511.31;30001;983;1861;-56
2022/07/11 01:43:00;;;;;;;;;;;;;;;13.56;72.49;97508.91;30001;987;1866;-57
2022/07/11 01:43:31;;;;;;;;;;;;;;;13.57;72.15;97511.31;30001;983;1875;-56
2022/07/11 01:44:02;;;;;;;;;;;;;;;13.57;72.04;97507.78;30001;983;1875;-55
2022/07/11 01:44:33;;;;;;;;;;;;;;;13.58;71.82;97506.69;30001;983;1875;-56
2022/07/11 01:45:04;;;;;;;;;;;;;;;13.59;71.57;97508.31;30001;983;1875;-56
2022/07/11 01:45:35;;;;;;;;;;;;;;;13.59;71.60;97509.13;30001;983;1875;-59
2022/07/11 01:46:06;;;;;;;;;;;;;;;13.59;71.97;97502.84;30001;983;1875;-55
2022/07/11 01:46:36;;;;;;;;;;;;;;;13.59;71.84;97508.31;30001;982;1875;-56
2022/07/11 01:47:08;;;;;;;;;;;;;;;13.58;71.83;97512.12;30001;982;1862;-56
2022/07/11 01:47:40;;;;;;;;;;;;;;;13.58;72.02;97506.69;30001;982;1867;-55
2022/07/11 01:48:11;;;;;;;;;;;;;;;13.57;72.08;97510.53;30001;982;1875;-55
2022/07/11 01:48:42;;;;;;;;;;;;;;;13.55;71.83;97508.09;30001;972;1886;-56
2022/07/11 01:49:16;;;;;;;;;;;;;;;13.55;71.67;97504.56;30001;983;1875;-56
2022/07/11 01:49:46;;;;;;;;;;;;;;;13.55;72.42;97507.28;30001;983;1875;-55
2022/07/11 01:50:19;;;;;;;;;;;;;;;13.54;73.01;97509.19;30001;983;1861;-56
2022/07/11 01:50:50;;;;;;;;;;;;;;;13.52;72.69;97510.59;30001;983;1866;-56
2022/07/11 01:51:22;;;;;;;;;;;;;;;13.50;72.39;97505.47;30001;983;1875;-56
2022/07/11 01:51:53;;;;;;;;;;;;;;;13.50;72.62;97504.66;30001;986;1871;-56
2022/07/11 01:52:25;;;;;;;;;;;;;;;13.47;72.44;97505.25;30001;983;1875;-56
2022/07/11 01:52:56;;;;;;;;;;;;;;;13.46;72.71;97511.81;30001;982;1875;-56
2022/07/11 01:53:27;;;;;;;;;;;;;;;13.45;72.19;97508.28;30001;982;1875;-56
2022/07/11 01:53:58;;;;;;;;;;;;;;;13.46;72.37;97511.81;30001;982;1875;-55
2022/07/11 01:54:29;;;;;;;;;;;;;;;13.47;72.38;97513.44;30001;982;1875;-55
2022/07/11 01:55:02;;;;;;;;;;;;;;;13.48;72.15;97512.31;30001;984;1862;-56
2022/07/11 01:55:32;;;;;;;;;;;;;;;13.48;71.78;97513.12;30001;982;1871;-57
2022/07/11 01:56:04;;;;;;;;;;;;;;;13.50;71.89;97507.38;30001;984;1875;-59
2022/07/11 01:56:35;;;;;;;;;;;;;;;13.51;71.75;97506.28;30001;983;1879;-55
2022/07/11 01:57:09;;;;;;;;;;;;;;;13.52;71.67;97507.88;30001;986;1879;-56
2022/07/11 01:57:40;;;;;;;;;;;;;;;13.53;72.19;97509.50;30001;983;1879;-56
2022/07/11 01:58:15;;;;;;;;;;;;;;;13.56;71.55;97506.16;30001;983;1879;-55
2022/07/11 01:58:46;;;;;;;;;;;;;;;13.59;71.70;97511.84;30001;983;1866;-55
2022/07/11 01:59:16;;;;;;;;;;;;;;;13.59;71.78;97498.22;30001;983;1870;-56
2022/07/11 01:59:48;;;;;;;;;;;;;;;13.61;71.86;97511.53;30001;983;1866;-56
2022/07/11 02:00:19;;;;;;;;;;;;;;;13.60;71.87;97504.47;30001;983;1871;-55
2022/07/11 02:00:53;;;;;;;;;;;;;;;13.60;71.91;97507.19;30001;982;1879;-56
2022/07/11 02:01:24;;;;;;;;;;;;;;;13.60;72.10;97507.19;30001;982;1880;-56
2022/07/11 02:01:55;;;;;;;;;;;;;;;13.60;71.76;97505.28;30001;982;1866;-55
2022/07/11 02:02:26;;;;;;;;;;;;;;;13.61;72.34;97508.81;30001;982;1858;-59
2022/07/11 02:02:57;;;;;;;;;;;;;;;13.60;72.19;97507.19;30001;982;1880;-56
2022/07/11 02:03:28;;;;;;;;;;;;;;;13.60;72.04;97499.03;30001;982;1867;-56
2022/07/11 02:03:59;;;;;;;;;;;;;;;13.58;72.11;97502.03;30001;983;1870;-57
2022/07/11 02:04:30;;;;;;;;;;;;;;;13.59;71.79;97506.38;30001;983;1879;-56
2022/07/11 02:05:01;;;;;;;;;;;;;;;13.60;71.87;97501.75;30001;983;1879;-55
2022/07/11 02:05:32;;;;;;;;;;;;;;;13.60;72.25;97505.28;30001;983;1879;-56
2022/07/11 02:06:04;;;;;;;;;;;;;;;13.59;72.87;97502.84;30001;983;1879;-55
2022/07/11 02:06:35;;;;;;;;;;;;;;;13.59;72.89;97497.41;30001;983;1879;-59
2022/07/11 02:07:07;;;;;;;;;;;;;;;13.59;73.35;97505.59;30001;983;1866;-56
2022/07/11 02:08:31;;;;;;;;;;;;;;;13.57;73.04;97505.88;30001;982;1866;-56
2022/07/11 02:09:01;;;;;;;;;;;;;;;13.58;72.62;97503.97;30001;982;1871;-55
2022/07/11 02:09:34;;;;;;;;;;;;;;;13.58;72.73;97509.41;30001;982;1880;-56
2022/07/11 02:10:05;;;;;;;;;;;;;;;13.59;72.85;97505.59;30001;982;1880;-56
2022/07/11 02:10:36;;;;;;;;;;;;;;;13.57;72.88;97502.34;30001;982;1880;-56
2022/07/11 02:11:11;;;;;;;;;;;;;;;13.58;72.77;97503.97;30001;982;1880;-55
2022/07/11 02:11:41;;;;;;;;;;;;;;;13.59;72.71;97502.84;30001;983;1879;-56
2022/07/11 02:12:15;;;;;;;;;;;;;;;13.59;72.19;97505.59;30001;983;1866;-59
2022/07/11 02:12:46;;;;;;;;;;;;;;;13.61;73.03;97508.81;30001;983;1870;-57
2022/07/11 02:13:18;;;;;;;;;;;;;;;13.59;73.37;97502.84;30001;983;1879;-56
2022/07/11 02:13:49;;;;;;;;;;;;;;;13.57;72.99;97500.44;30001;983;1879;-56
2022/07/11 02:14:23;;;;;;;;;;;;;;;13.57;73.15;97510.53;30001;983;1879;-56
2022/07/11 02:14:54;;;;;;;;;;;;;;;13.57;72.89;97505.88;30001;983;1879;-56
2022/07/11 02:15:25;;;;;;;;;;;;;;;13.58;72.75;97506.69;30001;986;1875;-55
2022/07/11 02:15:56;;;;;;;;;;;;;;;13.58;73.54;97503.97;30001;982;1880;-56
2022/07/11 02:16:27;;;;;;;;;;;;;;;13.57;73.60;97505.88;30001;982;1880;-55
2022/07/11 02:16:59;;;;;;;;;;;;;;;13.56;73.53;97504.25;30001;982;1866;-56
2022/07/11 02:17:29;;;;;;;;;;;;;;;13.56;73.14;97501.53;30001;985;1866;-54
2022/07/11 02:18:00;;;;;;;;;;;;;;;13.57;73.06;97505.06;30001;983;1879;-55
2022/07/11 02:18:34;;;;;;;;;;;;;;;13.57;73.19;97502.34;30001;963;1899;-56
2022/07/11 02:19:05;;;;;;;;;;;;;;;13.56;73.25;97496.06;30001;983;1879;-58
2022/07/11 02:19:36;;;;;;;;;;;;;;;13.55;72.99;97502.63;30001;983;1879;-54
2022/07/11 02:20:10;;;;;;;;;;;;;;;13.56;72.49;97493.34;30001;983;1879;-59
2022/07/11 02:20:42;;;;;;;;;;;;;;;13.58;72.72;97499.31;30001;983;1866;-54
2022/07/11 02:21:13;;;;;;;;;;;;;;;13.59;72.80;97497.41;30001;983;1870;-56
2022/07/11 02:21:44;;;;;;;;;;;;;;;13.60;73.03;97499.03;30001;983;1879;-55
2022/07/11 02:22:15;;;;;;;;;;;;;;;13.61;73.27;97500.63;30001;983;1866;-55
2022/07/11 02:22:46;;;;;;;;;;;;;;;13.61;72.83;97500.63;30001;983;1871;-55
2022/07/11 02:23:18;;;;;;;;;;;;;;;13.61;73.06;97500.63;30001;982;1880;-55
2022/07/11 02:23:49;;;;;;;;;;;;;;;13.60;73.29;97499.84;30001;982;1880;-55
2022/07/11 02:24:20;;;;;;;;;;;;;;;13.61;73.15;97495.19;30001;982;1880;-55
2022/07/11 02:24:51;;;;;;;;;;;;;;;13.62;73.60;97496.81;30001;982;1867;-57
2022/07/11 02:25:22;;;;;;;;;;;;;;;13.61;74.17;97500.63;30001;982;1871;-56
2022/07/11 02:25:53;;;;;;;;;;;;;;;13.62;73.12;97499.53;30001;983;1879;-56
2022/07/11 02:26:24;;;;;;;;;;;;;;;13.64;72.72;97500.06;30001;983;1879;-56
2022/07/11 02:26:55;;;;;;;;;;;;;;;13.64;72.72;97495.41;30001;983;1866;-56
2022/07/11 02:27:27;;;;;;;;;;;;;;;13.65;73.12;97496.22;30001;983;1870;-56
2022/07/11 02:27:59;;;;;;;;;;;;;;;13.64;73.52;97494.59;30001;983;1879;-56
2022/07/11 02:28:30;;;;;;;;;;;;;;;13.63;73.61;97495.69;30001;983;1879;-56
2022/07/11 02:29:01;;;;;;;;;;;;;;;13.62;73.31;97496.81;30001;983;1879;-56
2022/07/11 02:29:31;;;;;;;;;;;;;;;13.62;73.16;97496.81;30001;983;1879;-59
2022/07/11 02:30:03;;;;;;;;;;;;;;;13.63;73.51;97495.69;30001;983;1879;-59
2022/07/11 02:30:34;;;;;;;;;;;;;;;13.62;73.08;97496.81;30001;983;1879;-59
2022/07/11 02:31:05;;;;;;;;;;;;;;;13.63;72.80;97501.16;30001;982;1880;-59
2022/07/11 02:31:36;;;;;;;;;;;;;;;13.64;73.03;97494.59;30001;982;1867;-59
2022/07/11 02:32:07;;;;;;;;;;;;;;;13.65;73.02;97498.94;30001;982;1770;-58
2022/07/11 02:32:38;;;;;;;;;;;;;;;13.65;72.89;97504.41;30001;976;1897;-59
2022/07/11 02:33:18;;;;;;;;;;;;;;;13.65;73.28;97502.47;30001;983;1879;-59
2022/07/11 02:33:49;;;;;;;;;;;;;;;13.66;73.59;97498.66;30001;983;1866;-58
2022/07/11 02:34:20;;;;;;;;;;;;;;;13.66;73.58;97497.84;30001;983;1870;-58
2022/07/11 02:34:51;;;;;;;;;;;;;;;13.64;73.97;97498.12;30001;983;1879;-58
2022/07/11 02:35:22;;;;;;;;;;;;;;;13.64;73.68;97500.84;30001;983;1879;-59
2022/07/11 02:35:53;;;;;;;;;;;;;;;13.63;73.70;97492.97;30001;983;1879;-58
2022/07/11 02:36:24;;;;;;;;;;;;;;;13.63;73.36;97498.44;30001;983;1866;-57
2022/07/11 02:36:54;;;;;;;;;;;;;;;13.63;73.64;97499.25;30001;983;1871;-55
2022/07/11 02:37:25;;;;;;;;;;;;;;;13.64;73.45;97500.06;30001;982;1879;-59
2022/07/11 02:37:56;;;;;;;;;;;;;;;13.62;74.16;97492.16;30001;982;1879;-59
2022/07/11 02:38:27;;;;;;;;;;;;;;;13.62;74.37;97496.81;30001;982;1880;-60
2022/07/11 02:39:04;;;;;;;;;;;;;;;13.61;74.26;97496.00;30001;982;1867;-58
2022/07/11 02:39:35;;;;;;;;;;;;;;;13.61;74.19;97500.63;30001;982;1871;-60
2022/07/11 02:40:06;;;;;;;;;;;;;;;13.61;73.93;97500.63;30001;982;1880;-59
2022/07/11 02:40:38;;;;;;;;;;;;;;;13.60;74.68;97499.03;30001;982;1880;-55
2022/07/11 02:41:08;;;;;;;;;;;;;;;13.59;73.99;97509.13;30001;983;1879;-59
2022/07/11 02:41:39;;;;;;;;;;;;;;;13.61;74.13;97503.38;30001;983;1879;-59
2022/07/11 02:42:11;;;;;;;;;;;;;;;13.60;73.63;97499.84;30001;983;1879;-59
2022/07/11 02:42:41;;;;;;;;;;;;;;;13.61;73.60;97506.91;30001;983;1879;-59
2022/07/11 02:43:14;;;;;;;;;;;;;;;13.62;73.77;97502.25;30001;969;1798;-57
2022/07/11 02:43:46;;;;;;;;;;;;;;;13.62;74.00;97505.00;30001;983;1879;-59
2022/07/11 02:44:17;;;;;;;;;;;;;;;13.63;74.16;97501.97;30001;983;1866;-59
2022/07/11 02:44:48;;;;;;;;;;;;;;;13.62;74.49;97503.06;30001;983;1871;-58
2022/07/11 02:45:19;;;;;;;;;;;;;;;13.61;74.42;97497.91;30001;984;1880;-59
2022/07/11 02:45:50;;;;;;;;;;;;;;;13.61;74.22;97501.44;30001;982;1880;-58
2022/07/11 02:46:22;;;;;;;;;;;;;;;13.62;73.58;97502.25;30001;982;1880;-58
2022/07/11 02:46:52;;;;;;;;;;;;;;;13.63;73.67;97499.25;30001;982;1880;-59
2022/07/11 02:47:24;;;;;;;;;;;;;;;13.65;73.60;97504.41;30001;982;1880;-59
2022/07/11 02:47:54;;;;;;;;;;;;;;;13.65;73.84;97501.66;30001;982;1880;-58
2022/07/11 02:48:25;;;;;;;;;;;;;;;13.65;73.35;97493.50;30001;983;1879;-60
2022/07/11 02:48:56;;;;;;;;;;;;;;;13.67;73.66;97499.47;30001;983;1879;-58
2022/07/11 02:49:27;;;;;;;;;;;;;;;13.67;73.48;97504.91;30001;983;1866;-58
2022/07/11 02:49:58;;;;;;;;;;;;;;;13.67;73.47;97500.25;30001;983;1870;-57